Kansai — JD3272 — position and weather

sailwx.info

Track history (hours):
 
Tides and Currents Weather Stations Pressure Air Temp Water Temp Dewpoint Dewpoint Depression Visibility Wind Speed Wind Dir Waves Ship Positions

Kansai

Last reported at 2014-Dec-21 21:16 UTC. Time now 2014-Dec-22 05:00 UTC.
Position N 35°34' E 139°57'.

Length 73 m; draft 4.2 m.

Type: Cargo ship. MMSI: 431003134.

Date/timePositionNaut miles runAvg speedWind from/ knotsBaromVisibWave heightAir tempDewpointWater temp
2014-Dec-21 21:16N 35°34' E 139°57'3 4.6
2014-Dec-21 20:31N 35°31' E 139°54'8 7.8
2014-Dec-21 19:34N 35°26' E 139°48'10 9.5
2014-Dec-21 18:29N 35°15' E 139°47'248 9.4
2014-Dec-20 16:06N 33°58' E 135°01'611.3
2014-Dec-20 15:33N 34°04' E 134°59'1212.3
2014-Dec-20 14:33N 34°16' E 134°58'1212.3
2014-Dec-20 13:33N 34°28' E 135°02'9 8.0
2014-Dec-20 12:27N 34°37' E 134°57'  
2014-Dec-17 22:32N 35°12' E 139°46'1111.0
2014-Dec-17 21:34N 35°22' E 139°41'0 0.5
2014-Dec-17 20:34N 35°22' E 139°41'0 0.1
2014-Dec-17 19:33N 35°22' E 139°41'0 0.1
2014-Dec-17 18:34N 35°22' E 139°41'0 0.0
2014-Dec-17 17:34N 35°22' E 139°41'0 0.1
2014-Dec-17 16:33N 35°22' E 139°41'0 0.0
2014-Dec-17 15:33N 35°22' E 139°41'0 0.0
2014-Dec-17 14:33N 35°22' E 139°41'0 0.0
2014-Dec-17 13:32N 35°22' E 139°41'0 0.1
2014-Dec-17 12:34N 35°22' E 139°41'0 0.0
2014-Dec-17 11:33N 35°22' E 139°41'0 0.0
2014-Dec-17 10:33N 35°22' E 139°41'0 0.0
2014-Dec-17 09:32N 35°22' E 139°41'0 0.0
2014-Dec-17 08:32N 35°22' E 139°41'0 0.3
2014-Dec-17 07:33N 35°23' E 139°41'7 6.9
2014-Dec-17 06:31N 35°28' E 139°47'16 1.9
2014-Dec-16 22:28N 35°41' E 139°58'0 0.0
2014-Dec-16 21:33N 35°41' E 139°58'0 0.0
2014-Dec-16 20:32N 35°41' E 139°58'0 0.0
2014-Dec-16 19:29N 35°41' E 139°58'0 0.0
2014-Dec-16 18:33N 35°41' E 139°58'0 0.0
2014-Dec-16 17:33N 35°41' E 139°58'0 0.0
2014-Dec-16 16:33N 35°41' E 139°58'0 0.0
2014-Dec-16 15:30N 35°41' E 139°58'0 0.0
2014-Dec-16 14:33N 35°41' E 139°58'0 0.0
2014-Dec-16 13:31N 35°41' E 139°58'0 0.0
2014-Dec-16 12:29N 35°41' E 139°58'0 0.0
2014-Dec-16 11:16N 35°41' E 139°58'0 0.0
2014-Dec-16 09:12N 35°41' E 139°58'0 0.0
2014-Dec-16 08:21N 35°41' E 139°58'8 0.8
2014-Dec-15 22:32N 35°33' E 139°55'1110.8
2014-Dec-15 21:33N 35°25' E 139°47'10 9.7
2014-Dec-15 20:32N 35°15' E 139°47'248 9.5
2014-Dec-14 18:23N 33°57' E 135°01'911.1
2014-Dec-14 17:33N 34°06' E 134°59'1210.9
2014-Dec-14 16:25N 34°18' E 134°59'910.8
2014-Dec-14 15:33N 34°27' E 135°01'9 9.4
2014-Dec-14 14:33N 34°37' E 135°01'1110.7
2014-Dec-14 13:32N 34°40' E 134°48'3 0.1
2014-Dec-13 01:27N 34°39' E 134°52'1011.0
2014-Dec-13 00:33N 34°36' E 135°03'2010.2
2014-Dec-12 22:33N 34°16' E 134°59'1010.3
2014-Dec-12 21:32N 34°06' E 135°01'  
Track history (hours):
 
Tides and Currents Weather Stations Pressure Air Temp Water Temp Dewpoint Dewpoint Depression Visibility Wind Speed Wind Dir Waves Ship Positions

Kansai

Last reported at 2014-Dec-21 21:16 UTC. Time now 2014-Dec-22 05:00 UTC.
Position N 35°34' E 139°57'.

Length 73 m; draft 4.2 m.

Type: Cargo ship. MMSI: 431003134.

Date/timePositionNaut miles runAvg speedWind from/ knotsBaromVisibWave heightAir tempDewpointWater temp
2014-Dec-21 21:16N 35°34' E 139°57'3 4.6
2014-Dec-21 20:31N 35°31' E 139°54'8 7.8
2014-Dec-21 19:34N 35°26' E 139°48'10 9.5
2014-Dec-21 18:29N 35°15' E 139°47'248 9.4
2014-Dec-20 16:06N 33°58' E 135°01'611.3
2014-Dec-20 15:33N 34°04' E 134°59'1212.3
2014-Dec-20 14:33N 34°16' E 134°58'1212.3
2014-Dec-20 13:33N 34°28' E 135°02'9 8.0
2014-Dec-20 12:27N 34°37' E 134°57'  
2014-Dec-17 22:32N 35°12' E 139°46'1111.0
2014-Dec-17 21:34N 35°22' E 139°41'0 0.5
2014-Dec-17 20:34N 35°22' E 139°41'0 0.1
2014-Dec-17 19:33N 35°22' E 139°41'0 0.1
2014-Dec-17 18:34N 35°22' E 139°41'0 0.0
2014-Dec-17 17:34N 35°22' E 139°41'0 0.1
2014-Dec-17 16:33N 35°22' E 139°41'0 0.0
2014-Dec-17 15:33N 35°22' E 139°41'0 0.0
2014-Dec-17 14:33N 35°22' E 139°41'0 0.0
2014-Dec-17 13:32N 35°22' E 139°41'0 0.1
2014-Dec-17 12:34N 35°22' E 139°41'0 0.0
2014-Dec-17 11:33N 35°22' E 139°41'0 0.0
2014-Dec-17 10:33N 35°22' E 139°41'0 0.0
2014-Dec-17 09:32N 35°22' E 139°41'0 0.0
2014-Dec-17 08:32N 35°22' E 139°41'0 0.3
2014-Dec-17 07:33N 35°23' E 139°41'7 6.9
2014-Dec-17 06:31N 35°28' E 139°47'16 1.9
2014-Dec-16 22:28N 35°41' E 139°58'0 0.0
2014-Dec-16 21:33N 35°41' E 139°58'0 0.0
2014-Dec-16 20:32N 35°41' E 139°58'0 0.0
2014-Dec-16 19:29N 35°41' E 139°58'0 0.0
2014-Dec-16 18:33N 35°41' E 139°58'0 0.0
2014-Dec-16 17:33N 35°41' E 139°58'0 0.0
2014-Dec-16 16:33N 35°41' E 139°58'0 0.0
2014-Dec-16 15:30N 35°41' E 139°58'0 0.0
2014-Dec-16 14:33N 35°41' E 139°58'0 0.0
2014-Dec-16 13:31N 35°41' E 139°58'0 0.0
2014-Dec-16 12:29N 35°41' E 139°58'0 0.0
2014-Dec-16 11:16N 35°41' E 139°58'0 0.0
2014-Dec-16 09:12N 35°41' E 139°58'0 0.0
2014-Dec-16 08:21N 35°41' E 139°58'8 0.8
2014-Dec-15 22:32N 35°33' E 139°55'1110.8
2014-Dec-15 21:33N 35°25' E 139°47'10 9.7
2014-Dec-15 20:32N 35°15' E 139°47'248 9.5
2014-Dec-14 18:23N 33°57' E 135°01'911.1
2014-Dec-14 17:33N 34°06' E 134°59'1210.9
2014-Dec-14 16:25N 34°18' E 134°59'910.8
2014-Dec-14 15:33N 34°27' E 135°01'9 9.4
2014-Dec-14 14:33N 34°37' E 135°01'1110.7
2014-Dec-14 13:32N 34°40' E 134°48'3 0.1
2014-Dec-13 01:27N 34°39' E 134°52'1011.0
2014-Dec-13 00:33N 34°36' E 135°03'2010.2
2014-Dec-12 22:33N 34°16' E 134°59'1010.3
2014-Dec-12 21:32N 34°06' E 135°01'  

Dump ship's entire track history